createdAt,value
2022-10-24T00:02:46.652Z,20.56
2022-10-24T00:05:49.259Z,20.54
2022-10-24T00:08:52.357Z,20.53
2022-10-24T00:11:54.490Z,20.50
2022-10-24T00:14:57.310Z,20.50
2022-10-24T00:17:59.327Z,20.48
2022-10-24T00:21:04.457Z,20.51
2022-10-24T00:24:07.992Z,20.47
2022-10-24T00:27:10.915Z,20.50
2022-10-24T00:30:13.572Z,20.46
2022-10-24T00:33:15.955Z,20.47
2022-10-24T00:36:22.497Z,20.47
2022-10-24T00:39:25.751Z,20.44
2022-10-24T00:42:27.999Z,20.47
2022-10-24T00:45:40.790Z,20.41
2022-10-24T00:48:49.322Z,20.44
2022-10-24T00:51:57.562Z,20.44
2022-10-24T00:55:02.599Z,20.43
2022-10-24T00:58:07.122Z,20.40
2022-10-24T01:01:11.413Z,20.40
2022-10-24T01:04:14.745Z,20.41
2022-10-24T01:07:36.570Z,20.37
2022-10-24T01:10:41.685Z,20.40
2022-10-24T01:13:57.447Z,20.39
2022-10-24T01:17:21.321Z,20.37
2022-10-24T01:20:40.583Z,20.33
2022-10-24T01:24:19.028Z,20.34
2022-10-24T01:27:49.151Z,20.29
2022-10-24T01:31:06.626Z,20.30
2022-10-24T01:34:17.481Z,20.32
2022-10-24T01:37:35.840Z,20.30
2022-10-24T01:40:55.990Z,20.30
2022-10-24T01:44:07.451Z,20.27
2022-10-24T01:47:16.753Z,20.27
2022-10-24T01:50:22.200Z,20.26
2022-10-24T01:53:27.121Z,20.22
2022-10-24T01:56:29.512Z,20.23
2022-10-24T01:59:33.380Z,20.22
2022-10-24T02:02:46.348Z,20.20
2022-10-24T02:05:54.619Z,20.23
2022-10-24T02:12:07.958Z,20.19
2022-10-24T02:15:23.275Z,20.22
2022-10-24T02:18:26.215Z,20.22
2022-10-24T02:21:47.551Z,20.15
2022-10-24T02:25:13.082Z,20.16
2022-10-24T02:28:28.783Z,20.17
2022-10-24T02:31:38.908Z,20.19
2022-10-24T02:34:43.055Z,20.15
2022-10-24T02:37:51.020Z,20.15
2022-10-24T02:40:54.881Z,20.13
2022-10-24T02:44:02.744Z,20.13
2022-10-24T02:47:07.279Z,20.12
2022-10-24T02:50:09.920Z,20.15
2022-10-24T02:53:15.555Z,20.10
2022-10-24T02:56:19.199Z,20.08
2022-10-24T02:59:21.565Z,20.06
2022-10-24T03:02:24.738Z,20.09
2022-10-24T03:05:27.241Z,20.06
2022-10-24T03:08:30.605Z,20.08
2022-10-24T03:11:33.145Z,20.08
2022-10-24T03:14:35.156Z,20.06
2022-10-24T03:17:37.826Z,20.08
2022-10-24T03:20:41.505Z,20.09
2022-10-24T03:23:43.679Z,20.06
2022-10-24T03:26:46.077Z,20.06
2022-10-24T03:29:48.755Z,20.06
2022-10-24T03:32:50.937Z,20.08
2022-10-24T03:35:54.715Z,20.06
2022-10-24T03:38:56.764Z,20.00
2022-10-24T03:41:59.998Z,20.03
2022-10-24T03:45:02.022Z,19.97
2022-10-24T03:48:06.105Z,20.00
2022-10-24T03:51:09.084Z,20.05
2022-10-24T03:54:12.567Z,20.02
2022-10-24T03:57:15.024Z,19.99
2022-10-24T04:00:19.692Z,20.00
2022-10-24T04:03:22.460Z,19.99
2022-10-24T04:06:25.065Z,20.00
2022-10-24T04:09:28.291Z,19.97
2022-10-24T04:12:31.074Z,19.99
2022-10-24T04:15:33.220Z,19.93
2022-10-24T04:18:37.474Z,19.97
2022-10-24T04:21:39.807Z,20.00
2022-10-24T04:24:42.427Z,19.97
2022-10-24T04:27:45.796Z,19.96
2022-10-24T04:30:54.748Z,19.97
2022-10-24T04:33:57.748Z,19.89
2022-10-24T04:37:00.786Z,19.96
2022-10-24T04:40:03.544Z,19.92
2022-10-24T04:43:05.996Z,19.96
2022-10-24T04:46:08.284Z,19.95
2022-10-24T04:49:11.265Z,19.93
2022-10-24T04:52:15.430Z,19.92
2022-10-24T04:55:17.960Z,19.92
2022-10-24T04:58:20.218Z,19.93
2022-10-24T05:01:23.278Z,19.92
2022-10-24T05:04:25.500Z,19.90
2022-10-24T05:07:28.457Z,19.93
2022-10-24T05:10:31.323Z,19.86
2022-10-24T05:13:36.711Z,19.86
2022-10-24T05:16:40.382Z,19.81
2022-10-24T05:19:42.788Z,19.85
2022-10-24T05:22:45.311Z,19.87
2022-10-24T05:25:48.998Z,19.85
2022-10-24T05:28:52.720Z,19.86
2022-10-24T05:31:55.586Z,19.89
2022-10-24T05:34:58.005Z,19.86
2022-10-24T05:38:00.898Z,19.86
2022-10-24T05:41:03.356Z,19.85
2022-10-24T05:44:06.108Z,19.79
2022-10-24T05:47:08.267Z,19.78
2022-10-24T05:50:11.361Z,19.76
2022-10-24T05:53:14.484Z,19.82
2022-10-24T05:56:17.402Z,19.79
2022-10-24T05:59:20.638Z,19.79
2022-10-24T06:02:23.831Z,19.85
2022-10-24T06:05:26.536Z,19.83
2022-10-24T06:08:29.018Z,19.86
2022-10-24T06:11:31.255Z,19.86
2022-10-24T06:14:33.792Z,19.81
2022-10-24T06:17:36.020Z,19.76
2022-10-24T06:20:38.608Z,19.75
2022-10-24T06:23:41.624Z,19.75
2022-10-24T06:26:43.968Z,19.76
2022-10-24T06:29:46.334Z,19.69
2022-10-24T06:32:49.088Z,19.65
2022-10-24T06:35:51.462Z,19.69
2022-10-24T06:38:57.754Z,19.66
2022-10-24T06:42:01.410Z,19.65
2022-10-24T06:45:05.029Z,19.62
2022-10-24T06:48:08.365Z,19.68
2022-10-24T06:51:15.310Z,19.58
2022-10-24T06:54:17.419Z,19.73
2022-10-24T06:57:19.861Z,19.82
2022-10-24T07:00:22.817Z,19.92
2022-10-24T07:03:25.333Z,20.00
2022-10-24T07:06:29.436Z,19.97
2022-10-24T07:09:32.232Z,20.12
2022-10-24T07:12:35.578Z,19.96
2022-10-24T07:15:37.863Z,19.95
2022-10-24T07:18:40.629Z,19.96
2022-10-24T07:21:43.755Z,19.95
2022-10-24T07:24:46.570Z,19.95
2022-10-24T07:27:53.773Z,19.95
2022-10-24T07:30:55.790Z,19.96
2022-10-24T07:33:59.584Z,19.96
2022-10-24T07:37:05.104Z,19.95
2022-10-24T07:40:08.505Z,19.97
2022-10-24T07:43:15.469Z,19.96
2022-10-24T07:46:19.159Z,20.03
2022-10-24T07:49:21.255Z,20.15
2022-10-24T07:52:24.119Z,20.27
2022-10-24T07:55:26.144Z,20.33
2022-10-24T07:58:29.507Z,20.36
2022-10-24T08:01:31.938Z,20.41
2022-10-24T08:04:36.328Z,20.44
2022-10-24T08:07:38.636Z,20.51
2022-10-24T08:10:41.284Z,20.53
2022-10-24T08:13:44.841Z,20.58
2022-10-24T08:16:47.271Z,20.60
2022-10-24T08:19:50.830Z,20.61
2022-10-24T08:22:53.503Z,20.63
2022-10-24T08:25:56.486Z,20.63
2022-10-24T08:29:01.543Z,20.67
2022-10-24T08:32:04.272Z,20.67
2022-10-24T08:35:08.616Z,20.73
2022-10-24T08:38:12.393Z,20.74
2022-10-24T08:41:22.434Z,20.73
2022-10-24T08:44:37.387Z,20.71
2022-10-24T08:47:49.102Z,20.80
2022-10-24T08:50:57.861Z,20.74
2022-10-24T08:54:03.293Z,20.83
2022-10-24T08:57:06.924Z,20.87
2022-10-24T09:00:32.334Z,20.87
2022-10-24T09:03:56.891Z,20.88
2022-10-24T09:07:01.083Z,20.83
2022-10-24T09:10:14.017Z,20.84
2022-10-24T09:13:17.609Z,20.88
2022-10-24T09:16:22.622Z,20.88
2022-10-24T09:19:28.107Z,20.97
2022-10-24T09:22:34.135Z,21.04
2022-10-24T09:25:40.199Z,21.02
2022-10-24T09:28:44.297Z,20.99
2022-10-24T09:31:49.850Z,21.02
2022-10-24T09:34:53.611Z,21.15
2022-10-24T09:37:59.264Z,21.11
2022-10-24T09:41:08.407Z,21.19
2022-10-24T09:44:32.723Z,21.25
2022-10-24T09:47:40.010Z,21.27
2022-10-24T09:50:44.893Z,21.25
2022-10-24T09:54:18.444Z,21.28
2022-10-24T09:57:22.355Z,21.35
2022-10-24T10:00:27.216Z,21.31
2022-10-24T10:03:33.373Z,21.35
2022-10-24T10:06:45.320Z,21.38
2022-10-24T10:09:56.917Z,21.38
2022-10-24T10:13:20.736Z,21.41
2022-10-24T10:16:30.274Z,21.43
2022-10-24T10:19:37.267Z,21.46
2022-10-24T10:22:39.739Z,21.43
2022-10-24T10:25:41.901Z,21.46
2022-10-24T10:28:50.702Z,21.48
2022-10-24T10:32:18.003Z,21.48
2022-10-24T10:35:27.403Z,21.52
2022-10-24T10:38:43.615Z,21.56
2022-10-24T10:42:02.792Z,21.53
2022-10-24T10:45:16.474Z,21.52
2022-10-24T10:48:41.842Z,21.41
2022-10-24T10:51:44.972Z,21.31
2022-10-24T10:55:09.745Z,21.37
2022-10-24T10:58:17.769Z,21.43
2022-10-24T11:01:29.096Z,21.46
2022-10-24T11:04:57.613Z,21.48
2022-10-24T11:08:19.278Z,21.56
2022-10-24T11:11:29.251Z,21.56
2022-10-24T11:14:45.605Z,21.58
2022-10-24T11:17:50.975Z,21.52
2022-10-24T11:20:57.895Z,21.56
2022-10-24T11:24:19.166Z,21.31
2022-10-24T11:27:30.057Z,21.45
2022-10-24T11:30:45.472Z,21.52
2022-10-24T11:34:01.059Z,21.59
2022-10-24T11:37:19.538Z,21.62
2022-10-24T11:40:24.887Z,21.69
2022-10-24T11:43:33.654Z,21.66
2022-10-24T11:46:42.377Z,21.67
2022-10-24T11:49:49.353Z,21.69
2022-10-24T11:52:55.764Z,21.69
2022-10-24T11:56:23.513Z,21.73
2022-10-24T11:59:27.367Z,21.73
2022-10-24T12:02:51.946Z,21.72
2022-10-24T12:06:14.068Z,21.76
2022-10-24T12:09:19.712Z,21.75
2022-10-24T12:12:36.201Z,21.63
2022-10-24T12:16:04.698Z,21.53
2022-10-24T12:19:19.793Z,21.48
2022-10-24T12:22:27.834Z,21.48
2022-10-24T12:25:36.281Z,21.43
2022-10-24T12:28:39.143Z,21.41
2022-10-24T12:31:41.896Z,21.37
2022-10-24T12:34:49.059Z,21.34
2022-10-24T12:37:52.859Z,21.34
2022-10-24T12:41:10.363Z,21.31
2022-10-24T12:44:35.315Z,21.27
2022-10-24T12:47:44.751Z,21.27
2022-10-24T12:50:59.060Z,21.25
2022-10-24T12:54:13.718Z,21.24
2022-10-24T12:57:23.634Z,21.21
2022-10-24T13:00:33.925Z,21.21
2022-10-24T13:03:53.994Z,21.17
2022-10-24T13:07:14.527Z,21.19
2022-10-24T13:10:51.569Z,21.17
2022-10-24T13:14:11.601Z,21.15
2022-10-24T13:17:37.700Z,21.12
2022-10-24T13:20:43.323Z,21.09
2022-10-24T13:23:48.126Z,21.05
2022-10-24T13:26:56.023Z,21.04
2022-10-24T13:30:00.862Z,21.04
2022-10-24T13:33:36.676Z,21.04
2022-10-24T13:36:39.946Z,21.01
2022-10-24T13:39:53.851Z,21.01
2022-10-24T13:43:06.826Z,21.02
2022-10-24T13:46:13.224Z,21.01
2022-10-24T13:49:57.667Z,21.01
2022-10-24T13:53:05.641Z,20.95
2022-10-24T13:56:11.653Z,20.97
2022-10-24T13:59:33.902Z,20.97
2022-10-24T14:02:41.817Z,20.90
2022-10-24T14:05:53.931Z,20.83
2022-10-24T14:09:07.151Z,20.87
2022-10-24T14:12:25.041Z,20.88
2022-10-24T14:15:31.237Z,20.91
2022-10-24T14:18:35.079Z,20.90
2022-10-24T14:21:46.668Z,20.87
2022-10-24T14:24:51.298Z,20.84
2022-10-24T14:27:56.438Z,20.83
2022-10-24T14:31:02.109Z,20.80
2022-10-24T14:34:06.434Z,20.81
2022-10-24T14:37:12.430Z,20.81
2022-10-24T14:40:18.210Z,20.78
2022-10-24T14:43:25.435Z,20.80
2022-10-24T14:46:40.057Z,20.80
2022-10-24T14:49:42.322Z,20.76
2022-10-24T14:52:45.737Z,20.74
2022-10-24T14:55:53.733Z,20.76
2022-10-24T14:58:58.377Z,20.76
2022-10-24T15:02:02.764Z,20.71
2022-10-24T15:05:20.848Z,20.70
2022-10-24T15:08:36.836Z,20.67
2022-10-24T15:11:48.458Z,20.68
2022-10-24T15:14:54.371Z,20.74
2022-10-24T15:18:10.191Z,20.80
2022-10-24T15:21:18.078Z,20.80
2022-10-24T15:24:26.877Z,20.87
2022-10-24T15:27:32.172Z,20.88
2022-10-24T15:30:37.712Z,20.92
2022-10-24T15:36:49.874Z,20.99
2022-10-24T15:39:54.260Z,21.01
2022-10-24T15:42:57.162Z,21.07
2022-10-24T15:45:59.456Z,21.07
2022-10-24T15:49:02.140Z,21.12
2022-10-24T15:52:08.771Z,21.11
2022-10-24T15:55:23.763Z,21.07
2022-10-24T15:58:26.173Z,21.04
2022-10-24T16:01:36.144Z,20.99
2022-10-24T16:04:41.252Z,20.94
2022-10-24T16:07:46.051Z,20.92
2022-10-24T16:10:51.060Z,20.90
2022-10-24T16:13:53.986Z,20.67
2022-10-24T16:16:58.756Z,20.67
2022-10-24T16:20:07.780Z,20.64
2022-10-24T16:23:15.483Z,20.64
2022-10-24T16:26:17.967Z,20.56
2022-10-24T16:29:20.106Z,20.56
2022-10-24T16:32:22.521Z,20.54
2022-10-24T16:35:32.224Z,20.48
2022-10-24T16:38:35.819Z,20.56
2022-10-24T16:41:38.164Z,20.56
2022-10-24T16:44:40.623Z,20.60
2022-10-24T16:47:42.954Z,20.61
2022-10-24T16:50:46.549Z,20.58
2022-10-24T16:53:49.021Z,20.56
2022-10-24T16:56:54.333Z,20.54
2022-10-24T16:59:56.779Z,20.53
2022-10-24T17:02:59.744Z,20.50
2022-10-24T17:06:02.212Z,20.51
2022-10-24T17:09:04.690Z,20.48
2022-10-24T17:12:08.488Z,20.51
2022-10-24T17:15:12.068Z,20.47
2022-10-24T17:18:14.328Z,20.43
2022-10-24T17:21:22.184Z,20.44
2022-10-24T17:24:25.911Z,20.41
2022-10-24T17:27:28.580Z,20.40
2022-10-24T17:30:38.262Z,20.37
2022-10-24T17:34:03.371Z,20.34
2022-10-24T17:37:30.074Z,20.32
2022-10-24T17:40:42.047Z,20.30
2022-10-24T17:43:51.679Z,20.26
2022-10-24T17:47:28.494Z,20.26
2022-10-24T17:50:38.314Z,20.25
2022-10-24T17:53:53.887Z,20.22
2022-10-24T17:57:08.478Z,20.19
2022-10-24T18:00:21.407Z,20.19
2022-10-24T18:03:24.476Z,20.17
2022-10-24T18:06:27.019Z,20.17
2022-10-24T18:09:29.892Z,20.17
2022-10-24T18:12:41.572Z,20.15
2022-10-24T18:15:50.496Z,20.15
2022-10-24T18:20:02.719Z,20.15
2022-10-24T18:23:17.521Z,20.13
2022-10-24T18:26:23.324Z,20.10
2022-10-24T18:29:26.381Z,20.12
2022-10-24T18:32:44.763Z,20.16
2022-10-24T18:35:47.769Z,20.12
2022-10-24T18:38:52.268Z,20.12
2022-10-24T18:42:06.598Z,20.08
2022-10-24T18:45:13.161Z,20.10
2022-10-24T18:48:16.224Z,20.08
2022-10-24T18:51:38.712Z,20.05
2022-10-24T18:55:07.241Z,20.09
2022-10-24T18:58:16.305Z,20.17
2022-10-24T19:01:28.892Z,20.17
2022-10-24T19:04:34.268Z,20.23
2022-10-24T19:07:36.952Z,20.29
2022-10-24T19:10:39.411Z,20.36
2022-10-24T19:13:43.215Z,20.41
2022-10-24T19:16:47.420Z,20.46
2022-10-24T19:19:51.625Z,20.51
2022-10-24T19:22:53.947Z,20.58
2022-10-24T19:25:57.006Z,20.60
2022-10-24T19:29:01.137Z,20.70
2022-10-24T19:32:06.052Z,20.74
2022-10-24T19:35:10.609Z,20.77
2022-10-24T19:38:18.332Z,20.80
2022-10-24T19:41:20.696Z,20.84
2022-10-24T19:44:25.117Z,20.87
2022-10-24T19:47:27.167Z,20.90
2022-10-24T19:50:29.701Z,20.91
2022-10-24T19:53:36.050Z,20.95
2022-10-24T19:56:39.444Z,20.98
2022-10-24T19:59:41.838Z,21.04
2022-10-24T20:02:44.584Z,21.04
2022-10-24T20:05:47.126Z,21.05
2022-10-24T20:08:49.949Z,21.04
2022-10-24T20:11:53.287Z,21.07
2022-10-24T20:14:55.959Z,21.07
2022-10-24T20:17:58.683Z,20.95
2022-10-24T20:21:06.023Z,20.88
2022-10-24T20:24:09.028Z,20.84
2022-10-24T20:27:11.619Z,20.81
2022-10-24T20:30:13.911Z,20.77
2022-10-24T20:33:17.175Z,20.77
2022-10-24T20:36:21.433Z,20.70
2022-10-24T20:39:24.220Z,20.70
2022-10-24T20:42:26.483Z,20.67
2022-10-24T20:45:29.854Z,20.63
2022-10-24T20:48:33.910Z,20.61
2022-10-24T20:51:36.855Z,20.60
2022-10-24T20:54:39.286Z,20.56
2022-10-24T20:57:41.626Z,20.54
2022-10-24T21:00:45.999Z,20.54
2022-10-24T21:03:50.474Z,20.57
2022-10-24T21:06:52.740Z,20.60
2022-10-24T21:09:55.297Z,20.64
2022-10-24T21:12:57.865Z,20.70
2022-10-24T21:16:02.860Z,20.74
2022-10-24T21:19:05.252Z,20.78
2022-10-24T21:22:07.930Z,20.81
2022-10-24T21:25:11.386Z,20.84
2022-10-24T21:28:13.936Z,20.83
2022-10-24T21:31:19.261Z,20.83
2022-10-24T21:34:22.574Z,20.83
2022-10-24T21:37:26.748Z,20.84
2022-10-24T21:40:29.011Z,20.85
2022-10-24T21:43:36.547Z,20.85
2022-10-24T21:46:41.365Z,20.95
2022-10-24T21:49:48.798Z,20.92
2022-10-24T21:52:51.146Z,21.01
2022-10-24T21:55:53.269Z,21.04
2022-10-24T22:02:05.369Z,21.05
2022-10-24T22:05:08.066Z,21.07
2022-10-24T22:08:10.354Z,21.08
2022-10-24T22:11:18.709Z,21.12
2022-10-24T22:14:21.109Z,21.11
2022-10-24T22:17:25.911Z,21.15
2022-10-24T22:20:32.389Z,21.17
2022-10-24T22:23:38.936Z,21.22
2022-10-24T22:26:41.924Z,21.22
2022-10-24T22:29:45.689Z,21.22
2022-10-24T22:32:57.109Z,21.24
2022-10-24T22:36:08.789Z,21.27
2022-10-24T22:39:17.614Z,21.28
2022-10-24T22:42:21.042Z,21.31
2022-10-24T22:45:24.292Z,21.29
2022-10-24T22:48:33.707Z,21.32
2022-10-24T22:51:36.081Z,21.32
2022-10-24T22:54:39.680Z,21.39
2022-10-24T22:57:42.136Z,21.39
2022-10-24T23:00:46.917Z,21.35
2022-10-24T23:03:59.326Z,21.32
2022-10-24T23:07:22.502Z,21.34
2022-10-24T23:10:27.724Z,21.31
2022-10-24T23:13:31.942Z,21.34
2022-10-24T23:16:56.415Z,21.35
2022-10-24T23:20:02.531Z,21.39
2022-10-24T23:23:17.100Z,21.32
2022-10-24T23:26:41.043Z,21.19
2022-10-24T23:29:46.693Z,21.15
2022-10-24T23:32:51.338Z,21.12
2022-10-24T23:35:58.047Z,21.09
2022-10-24T23:39:00.504Z,21.05
2022-10-24T23:42:05.342Z,21.01
2022-10-24T23:45:13.792Z,20.95
2022-10-24T23:48:50.085Z,20.95
2022-10-24T23:52:19.037Z,20.91
2022-10-24T23:55:21.854Z,20.87
2022-10-24T23:58:24.275Z,20.85
